sensor_id;sensor_type;location;lat;lon;timestamp;P1;durP1;ratioP1;P2;durP2;ratioP2
68375;SDS011;55318;52.068;5.188;2023-05-01T00:02:13;1.6;;;1.4;;
68375;SDS011;55318;52.068;5.188;2023-05-01T00:03:49;1.6;;;1.3;;
68375;SDS011;55318;52.068;5.188;2023-05-01T00:05:26;2.9;;;1.4;;
68375;SDS011;55318;52.068;5.188;2023-05-01T00:07:02;5.4;;;1.7;;
68375;SDS011;55318;52.068;5.188;2023-05-01T00:10:15;3.3;;;1.6;;
68375;SDS011;55318;52.068;5.188;2023-05-01T00:11:51;2.8;;;1.4;;
68375;SDS011;55318;52.068;5.188;2023-05-01T00:13:28;2.1;;;1.4;;
68375;SDS011;55318;52.068;5.188;2023-05-01T00:16:43;2.1;;;1.4;;
68375;SDS011;55318;52.068;5.188;2023-05-01T00:18:20;2.4;;;1.6;;
68375;SDS011;55318;52.068;5.188;2023-05-01T00:19:57;2.1;;;1.6;;
68375;SDS011;55318;52.068;5.188;2023-05-01T00:23:09;2.9;;;1.6;;
68375;SDS011;55318;52.068;5.188;2023-05-01T00:24:46;2.4;;;1.4;;
68375;SDS011;55318;52.068;5.188;2023-05-01T00:26:22;2.0;;;1.5;;
68375;SDS011;55318;52.068;5.188;2023-05-01T00:27:59;1.8;;;1.3;;
68375;SDS011;55318;52.068;5.188;2023-05-01T00:31:12;3.6;;;2.1;;
68375;SDS011;55318;52.068;5.188;2023-05-01T00:32:49;4.91;;;2.0;;
68375;SDS011;55318;52.068;5.188;2023-05-01T00:34:25;2.21;;;1.3;;
68375;SDS011;55318;52.068;5.188;2023-05-01T00:37:39;2.31;;;1.2;;
68375;SDS011;55318;52.068;5.188;2023-05-01T00:39:15;2.4;;;1.5;;
68375;SDS011;55318;52.068;5.188;2023-05-01T00:40:51;2.0;;;1.6;;
68375;SDS011;55318;52.068;5.188;2023-05-01T00:44:09;1.8;;;1.4;;
68375;SDS011;55318;52.068;5.188;2023-05-01T00:45:45;2.6;;;1.6;;
68375;SDS011;55318;52.068;5.188;2023-05-01T00:47:21;2.6;;;1.7;;
68375;SDS011;55318;52.068;5.188;2023-05-01T00:48:58;2.6;;;1.4;;
68375;SDS011;55318;52.068;5.188;2023-05-01T00:52:12;2.6;;;1.6;;
68375;SDS011;55318;52.068;5.188;2023-05-01T00:53:49;3.1;;;1.6;;
68375;SDS011;55318;52.068;5.188;2023-05-01T00:55:26;3.2;;;1.4;;
68375;SDS011;55318;52.068;5.188;2023-05-01T00:58:40;1.8;;;1.5;;
68375;SDS011;55318;52.068;5.188;2023-05-01T01:00:17;3.1;;;1.5;;
68375;SDS011;55318;52.068;5.188;2023-05-01T01:01:56;1.7;;;1.4;;
68375;SDS011;55318;52.068;5.188;2023-05-01T01:03:33;2.4;;;1.2;;
68375;SDS011;55318;52.068;5.188;2023-05-01T01:06:48;1.7;;;1.3;;
68375;SDS011;55318;52.068;5.188;2023-05-01T01:08:32;1.8;;;1.2;;
68375;SDS011;55318;52.068;5.188;2023-05-01T01:10:15;3.9;;;1.4;;
68375;SDS011;55318;52.068;5.188;2023-05-01T01:12:03;2.1;;;1.5;;
68375;SDS011;55318;52.068;5.188;2023-05-01T01:15:38;3.3;;;1.3;;
68375;SDS011;55318;52.068;5.188;2023-05-01T01:17:20;4.0;;;1.7;;
68375;SDS011;55318;52.068;5.188;2023-05-01T01:19:05;1.8;;;1.3;;
68375;SDS011;55318;52.068;5.188;2023-05-01T01:21:06;1.6;;;1.3;;
68375;SDS011;55318;52.068;5.188;2023-05-01T01:22:50;1.6;;;1.5;;
68375;SDS011;55318;52.068;5.188;2023-05-01T01:24:39;7.5;;;1.5;;
68375;SDS011;55318;52.068;5.188;2023-05-01T01:26:38;2.31;;;1.5;;
68375;SDS011;55318;52.068;5.188;2023-05-01T01:28:50;2.0;;;1.6;;
68375;SDS011;55318;52.068;5.188;2023-05-01T01:31:31;2.21;;;1.2;;
68375;SDS011;55318;52.068;5.188;2023-05-01T01:33:23;1.6;;;1.2;;
68375;SDS011;55318;52.068;5.188;2023-05-01T01:35:24;3.0;;;1.6;;
68375;SDS011;55318;52.068;5.188;2023-05-01T01:37:03;2.1;;;1.4;;
68375;SDS011;55318;52.068;5.188;2023-05-01T01:40:42;2.7;;;1.4;;
68375;SDS011;55318;52.068;5.188;2023-05-01T01:42:28;4.61;;;1.7;;
68375;SDS011;55318;52.068;5.188;2023-05-01T01:44:14;3.4;;;1.4;;
68375;SDS011;55318;52.068;5.188;2023-05-01T01:46:03;2.21;;;1.3;;
68375;SDS011;55318;52.068;5.188;2023-05-01T01:47:42;2.21;;;1.3;;
68375;SDS011;55318;52.068;5.188;2023-05-01T01:51:00;3.6;;;1.3;;
68375;SDS011;55318;52.068;5.188;2023-05-01T01:52:44;2.1;;;1.4;;
68375;SDS011;55318;52.068;5.188;2023-05-01T01:54:25;2.4;;;1.6;;
68375;SDS011;55318;52.068;5.188;2023-05-01T01:56:06;3.5;;;1.8;;
68375;SDS011;55318;52.068;5.188;2023-05-01T01:59:22;2.9;;;1.6;;
68375;SDS011;55318;52.068;5.188;2023-05-01T02:01:00;2.1;;;1.6;;
68375;SDS011;55318;52.068;5.188;2023-05-01T02:02:38;3.3;;;1.5;;
68375;SDS011;55318;52.068;5.188;2023-05-01T02:04:15;3.7;;;1.7;;
68375;SDS011;55318;52.068;5.188;2023-05-01T02:07:33;1.6;;;1.4;;
68375;SDS011;55318;52.068;5.188;2023-05-01T02:09:12;3.2;;;1.4;;
68375;SDS011;55318;52.068;5.188;2023-05-01T02:10:54;2.4;;;1.7;;
68375;SDS011;55318;52.068;5.188;2023-05-01T02:12:31;4.41;;;2.0;;
68375;SDS011;55318;52.068;5.188;2023-05-01T02:15:46;3.0;;;1.6;;
68375;SDS011;55318;52.068;5.188;2023-05-01T02:17:23;1.9;;;1.4;;
68375;SDS011;55318;52.068;5.188;2023-05-01T02:19:01;3.9;;;1.4;;
68375;SDS011;55318;52.068;5.188;2023-05-01T02:22:18;2.5;;;1.4;;
68375;SDS011;55318;52.068;5.188;2023-05-01T02:23:57;2.7;;;1.6;;
68375;SDS011;55318;52.068;5.188;2023-05-01T02:25:36;2.6;;;1.3;;
68375;SDS011;55318;52.068;5.188;2023-05-01T02:27:15;3.6;;;1.4;;
68375;SDS011;55318;52.068;5.188;2023-05-01T02:30:31;2.31;;;1.5;;
68375;SDS011;55318;52.068;5.188;2023-05-01T02:32:07;6.4;;;1.7;;
68375;SDS011;55318;52.068;5.188;2023-05-01T02:33:43;3.5;;;1.5;;
68375;SDS011;55318;52.068;5.188;2023-05-01T02:36:56;2.8;;;1.5;;
68375;SDS011;55318;52.068;5.188;2023-05-01T02:38:32;2.4;;;1.6;;
68375;SDS011;55318;52.068;5.188;2023-05-01T02:40:08;5.7;;;2.0;;
68375;SDS011;55318;52.068;5.188;2023-05-01T02:41:47;2.0;;;1.8;;
68375;SDS011;55318;52.068;5.188;2023-05-01T02:45:05;2.0;;;1.8;;
68375;SDS011;55318;52.068;5.188;2023-05-01T02:46:43;4.61;;;1.6;;
68375;SDS011;55318;52.068;5.188;2023-05-01T02:48:23;2.0;;;1.2;;
68375;SDS011;55318;52.068;5.188;2023-05-01T02:51:42;5.7;;;1.6;;
68375;SDS011;55318;52.068;5.188;2023-05-01T02:53:20;3.7;;;1.6;;
68375;SDS011;55318;52.068;5.188;2023-05-01T02:54:57;1.8;;;1.11;;
68375;SDS011;55318;52.068;5.188;2023-05-01T02:56:33;4.41;;;1.9;;
68375;SDS011;55318;52.068;5.188;2023-05-01T02:59:50;1.7;;;1.11;;
68375;SDS011;55318;52.068;5.188;2023-05-01T03:01:27;2.9;;;1.7;;
68375;SDS011;55318;52.068;5.188;2023-05-01T03:03:04;2.4;;;1.4;;
68375;SDS011;55318;52.068;5.188;2023-05-01T03:06:16;2.4;;;1.5;;
68375;SDS011;55318;52.068;5.188;2023-05-01T03:07:52;1.8;;;1.5;;
68375;SDS011;55318;52.068;5.188;2023-05-01T03:09:28;2.4;;;1.5;;
68375;SDS011;55318;52.068;5.188;2023-05-01T03:11:04;2.6;;;1.7;;
68375;SDS011;55318;52.068;5.188;2023-05-01T03:14:18;3.2;;;1.7;;
68375;SDS011;55318;52.068;5.188;2023-05-01T03:15:55;4.2;;;1.9;;
68375;SDS011;55318;52.068;5.188;2023-05-01T03:17:31;2.6;;;1.4;;
68375;SDS011;55318;52.068;5.188;2023-05-01T03:20:49;4.41;;;1.5;;
68375;SDS011;55318;52.068;5.188;2023-05-01T03:22:27;2.31;;;1.6;;
68375;SDS011;55318;52.068;5.188;2023-05-01T03:24:05;2.7;;;1.8;;
68375;SDS011;55318;52.068;5.188;2023-05-01T03:27:18;2.7;;;1.4;;
68375;SDS011;55318;52.068;5.188;2023-05-01T03:28:54;2.0;;;1.5;;
68375;SDS011;55318;52.068;5.188;2023-05-01T03:30:31;3.5;;;1.7;;
68375;SDS011;55318;52.068;5.188;2023-05-01T03:32:08;3.9;;;1.6;;
68375;SDS011;55318;52.068;5.188;2023-05-01T03:35:20;2.8;;;1.4;;
68375;SDS011;55318;52.068;5.188;2023-05-01T03:36:56;2.0;;;1.4;;
68375;SDS011;55318;52.068;5.188;2023-05-01T03:38:32;2.21;;;1.5;;
68375;SDS011;55318;52.068;5.188;2023-05-01T03:41:46;4.0;;;1.6;;
68375;SDS011;55318;52.068;5.188;2023-05-01T03:43:22;2.5;;;1.3;;
68375;SDS011;55318;52.068;5.188;2023-05-01T03:44:59;3.9;;;1.7;;
68375;SDS011;55318;52.068;5.188;2023-05-01T03:48:11;2.6;;;1.5;;
68375;SDS011;55318;52.068;5.188;2023-05-01T03:49:47;6.0;;;1.9;;
68375;SDS011;55318;52.068;5.188;2023-05-01T03:51:23;2.21;;;1.5;;
68375;SDS011;55318;52.068;5.188;2023-05-01T03:53:00;3.1;;;1.5;;
68375;SDS011;55318;52.068;5.188;2023-05-01T03:56:12;5.4;;;1.6;;
68375;SDS011;55318;52.068;5.188;2023-05-01T03:57:48;2.21;;;1.3;;
68375;SDS011;55318;52.068;5.188;2023-05-01T03:59:24;7.8;;;1.8;;
68375;SDS011;55318;52.068;5.188;2023-05-01T04:02:36;3.1;;;2.1;;
68375;SDS011;55318;52.068;5.188;2023-05-01T04:09:13;2.6;;;1.4;;
68375;SDS011;55318;52.068;5.188;2023-05-01T04:10:49;3.0;;;1.7;;
68375;SDS011;55318;52.068;5.188;2023-05-01T04:12:25;2.0;;;1.5;;
68375;SDS011;55318;52.068;5.188;2023-05-01T04:14:00;2.8;;;1.5;;
68375;SDS011;55318;52.068;5.188;2023-05-01T04:17:12;3.8;;;1.6;;
68375;SDS011;55318;52.068;5.188;2023-05-01T04:18:49;3.9;;;1.7;;
68375;SDS011;55318;52.068;5.188;2023-05-01T04:20:25;2.4;;;1.3;;
68375;SDS011;55318;52.068;5.188;2023-05-01T04:23:37;2.9;;;1.9;;
68375;SDS011;55318;52.068;5.188;2023-05-01T04:25:13;1.7;;;1.2;;
68375;SDS011;55318;52.068;5.188;2023-05-01T04:26:49;4.7;;;2.21;;
68375;SDS011;55318;52.068;5.188;2023-05-01T04:30:02;1.7;;;1.4;;
68375;SDS011;55318;52.068;5.188;2023-05-01T04:31:38;1.7;;;1.6;;
68375;SDS011;55318;52.068;5.188;2023-05-01T04:33:14;5.11;;;2.0;;
68375;SDS011;55318;52.068;5.188;2023-05-01T04:34:50;3.9;;;1.6;;
68375;SDS011;55318;52.068;5.188;2023-05-01T04:38:02;3.2;;;2.1;;
68375;SDS011;55318;52.068;5.188;2023-05-01T04:39:38;3.1;;;1.6;;
68375;SDS011;55318;52.068;5.188;2023-05-01T04:41:14;2.6;;;1.5;;
68375;SDS011;55318;52.068;5.188;2023-05-01T04:44:27;1.7;;;1.4;;
68375;SDS011;55318;52.068;5.188;2023-05-01T04:46:03;3.6;;;1.4;;
68375;SDS011;55318;52.068;5.188;2023-05-01T04:47:39;1.8;;;1.2;;
68375;SDS011;55318;52.068;5.188;2023-05-01T04:50:51;2.8;;;1.6;;
68375;SDS011;55318;52.068;5.188;2023-05-01T04:52:27;4.2;;;1.9;;
68375;SDS011;55318;52.068;5.188;2023-05-01T04:54:03;4.8;;;1.6;;
68375;SDS011;55318;52.068;5.188;2023-05-01T04:57:16;1.6;;;1.3;;
68375;SDS011;55318;52.068;5.188;2023-05-01T04:58:52;3.2;;;1.8;;
68375;SDS011;55318;52.068;5.188;2023-05-01T05:00:28;2.8;;;1.7;;
68375;SDS011;55318;52.068;5.188;2023-05-01T05:02:04;4.61;;;2.0;;
68375;SDS011;55318;52.068;5.188;2023-05-01T05:05:18;1.8;;;1.5;;
68375;SDS011;55318;52.068;5.188;2023-05-01T05:06:54;3.8;;;1.7;;
68375;SDS011;55318;52.068;5.188;2023-05-01T05:08:30;2.0;;;1.5;;
68375;SDS011;55318;52.068;5.188;2023-05-01T05:11:43;3.9;;;1.8;;
68375;SDS011;55318;52.068;5.188;2023-05-01T05:13:19;2.8;;;1.4;;
68375;SDS011;55318;52.068;5.188;2023-05-01T05:14:55;2.8;;;1.6;;
68375;SDS011;55318;52.068;5.188;2023-05-01T05:18:07;2.8;;;1.5;;
68375;SDS011;55318;52.068;5.188;2023-05-01T05:19:43;3.7;;;1.9;;
68375;SDS011;55318;52.068;5.188;2023-05-01T05:21:19;3.7;;;1.5;;
68375;SDS011;55318;52.068;5.188;2023-05-01T05:22:55;2.9;;;1.6;;
68375;SDS011;55318;52.068;5.188;2023-05-01T05:26:08;4.8;;;1.6;;
68375;SDS011;55318;52.068;5.188;2023-05-01T05:27:44;4.91;;;2.4;;
68375;SDS011;55318;52.068;5.188;2023-05-01T05:29:20;2.6;;;1.8;;
68375;SDS011;55318;52.068;5.188;2023-05-01T05:32:32;3.0;;;1.7;;
68375;SDS011;55318;52.068;5.188;2023-05-01T05:34:08;3.2;;;1.9;;
68375;SDS011;55318;52.068;5.188;2023-05-01T05:35:44;2.0;;;1.8;;
68375;SDS011;55318;52.068;5.188;2023-05-01T05:38:57;2.6;;;1.3;;
68375;SDS011;55318;52.068;5.188;2023-05-01T05:40:34;2.31;;;1.8;;
68375;SDS011;55318;52.068;5.188;2023-05-01T05:42:10;3.2;;;1.5;;
68375;SDS011;55318;52.068;5.188;2023-05-01T05:45:22;3.5;;;2.0;;
68375;SDS011;55318;52.068;5.188;2023-05-01T05:46:58;3.1;;;2.1;;
68375;SDS011;55318;52.068;5.188;2023-05-01T05:48:34;2.4;;;1.7;;
68375;SDS011;55318;52.068;5.188;2023-05-01T05:50:11;2.8;;;1.7;;
68375;SDS011;55318;52.068;5.188;2023-05-01T05:53:23;3.0;;;1.9;;
68375;SDS011;55318;52.068;5.188;2023-05-01T05:55:00;3.5;;;1.9;;
68375;SDS011;55318;52.068;5.188;2023-05-01T05:56:36;2.6;;;1.5;;
68375;SDS011;55318;52.068;5.188;2023-05-01T05:59:49;2.21;;;1.5;;
68375;SDS011;55318;52.068;5.188;2023-05-01T06:01:25;4.2;;;2.0;;
68375;SDS011;55318;52.068;5.188;2023-05-01T06:03:02;3.9;;;2.21;;
68375;SDS011;55318;52.068;5.188;2023-05-01T06:06:14;3.7;;;2.1;;
68375;SDS011;55318;52.068;5.188;2023-05-01T06:07:51;2.6;;;1.8;;
68375;SDS011;55318;52.068;5.188;2023-05-01T06:09:27;5.4;;;1.9;;
68375;SDS011;55318;52.068;5.188;2023-05-01T06:11:03;3.8;;;2.5;;
68375;SDS011;55318;52.068;5.188;2023-05-01T06:14:15;4.8;;;2.21;;
68375;SDS011;55318;52.068;5.188;2023-05-01T06:15:50;2.4;;;1.7;;
68375;SDS011;55318;52.068;5.188;2023-05-01T06:17:27;4.5;;;1.9;;
68375;SDS011;55318;52.068;5.188;2023-05-01T06:20:39;5.0;;;2.0;;
68375;SDS011;55318;52.068;5.188;2023-05-01T06:22:15;3.3;;;1.6;;
68375;SDS011;55318;52.068;5.188;2023-05-01T06:23:51;4.5;;;2.0;;
68375;SDS011;55318;52.068;5.188;2023-05-01T06:27:03;5.8;;;1.7;;
68375;SDS011;55318;52.068;5.188;2023-05-01T06:28:39;3.9;;;2.31;;
68375;SDS011;55318;52.068;5.188;2023-05-01T06:30:16;3.2;;;1.5;;
68375;SDS011;55318;52.068;5.188;2023-05-01T06:33:28;5.0;;;2.8;;
68375;SDS011;55318;52.068;5.188;2023-05-01T06:35:04;5.4;;;1.8;;
68375;SDS011;55318;52.068;5.188;2023-05-01T06:36:41;4.0;;;2.0;;
68375;SDS011;55318;52.068;5.188;2023-05-01T06:38:17;5.8;;;2.8;;
68375;SDS011;55318;52.068;5.188;2023-05-01T06:41:29;3.0;;;1.8;;
68375;SDS011;55318;52.068;5.188;2023-05-01T06:43:06;3.5;;;2.31;;
68375;SDS011;55318;52.068;5.188;2023-05-01T06:44:42;2.7;;;1.4;;
68375;SDS011;55318;52.068;5.188;2023-05-01T06:47:54;3.8;;;2.21;;
68375;SDS011;55318;52.068;5.188;2023-05-01T06:49:30;3.2;;;2.1;;
68375;SDS011;55318;52.068;5.188;2023-05-01T06:51:06;5.3;;;2.21;;
68375;SDS011;55318;52.068;5.188;2023-05-01T06:54:18;4.2;;;1.8;;
68375;SDS011;55318;52.068;5.188;2023-05-01T06:55:55;3.6;;;1.7;;
68375;SDS011;55318;52.068;5.188;2023-05-01T06:57:31;2.0;;;1.6;;
68375;SDS011;55318;52.068;5.188;2023-05-01T06:59:07;3.4;;;1.9;;
68375;SDS011;55318;52.068;5.188;2023-05-01T07:02:20;4.41;;;1.6;;
68375;SDS011;55318;52.068;5.188;2023-05-01T07:03:56;3.5;;;1.8;;
68375;SDS011;55318;52.068;5.188;2023-05-01T07:05:32;7.1;;;1.8;;
68375;SDS011;55318;52.068;5.188;2023-05-01T07:08:45;4.0;;;2.6;;
68375;SDS011;55318;52.068;5.188;2023-05-01T07:10:21;3.0;;;1.5;;
68375;SDS011;55318;52.068;5.188;2023-05-01T07:11:57;5.5;;;2.31;;
68375;SDS011;55318;52.068;5.188;2023-05-01T07:15:09;4.41;;;1.9;;
68375;SDS011;55318;52.068;5.188;2023-05-01T07:16:45;4.41;;;2.31;;
68375;SDS011;55318;52.068;5.188;2023-05-01T07:18:21;4.41;;;2.31;;
68375;SDS011;55318;52.068;5.188;2023-05-01T07:21:34;2.9;;;1.8;;
68375;SDS011;55318;52.068;5.188;2023-05-01T07:23:10;4.2;;;1.8;;
68375;SDS011;55318;52.068;5.188;2023-05-01T07:24:46;9.6;;;2.31;;
68375;SDS011;55318;52.068;5.188;2023-05-01T07:26:23;2.9;;;1.6;;
68375;SDS011;55318;52.068;5.188;2023-05-01T07:29:37;3.7;;;1.9;;
68375;SDS011;55318;52.068;5.188;2023-05-01T07:31:13;6.4;;;1.9;;
68375;SDS011;55318;52.068;5.188;2023-05-01T07:32:49;3.0;;;1.8;;
68375;SDS011;55318;52.068;5.188;2023-05-01T07:36:02;4.3;;;2.4;;
68375;SDS011;55318;52.068;5.188;2023-05-01T07:37:39;6.4;;;1.7;;
68375;SDS011;55318;52.068;5.188;2023-05-01T07:39:15;5.5;;;1.8;;
68375;SDS011;55318;52.068;5.188;2023-05-01T07:42:27;4.3;;;1.7;;
68375;SDS011;55318;52.068;5.188;2023-05-01T07:44:03;3.8;;;2.31;;
68375;SDS011;55318;52.068;5.188;2023-05-01T07:45:40;6.9;;;1.8;;
68375;SDS011;55318;52.068;5.188;2023-05-01T07:47:16;3.2;;;1.7;;
68375;SDS011;55318;52.068;5.188;2023-05-01T07:50:28;4.61;;;2.0;;
68375;SDS011;55318;52.068;5.188;2023-05-01T07:52:05;3.1;;;1.7;;
68375;SDS011;55318;52.068;5.188;2023-05-01T07:53:41;4.2;;;2.31;;
68375;SDS011;55318;52.068;5.188;2023-05-01T07:56:56;4.2;;;1.9;;
68375;SDS011;55318;52.068;5.188;2023-05-01T07:58:33;3.6;;;2.0;;
68375;SDS011;55318;52.068;5.188;2023-05-01T08:00:10;4.3;;;2.31;;
68375;SDS011;55318;52.068;5.188;2023-05-01T08:03:23;5.2;;;1.7;;
68375;SDS011;55318;52.068;5.188;2023-05-01T08:04:59;3.0;;;2.1;;
68375;SDS011;55318;52.068;5.188;2023-05-01T08:06:35;2.7;;;1.8;;
68375;SDS011;55318;52.068;5.188;2023-05-01T08:08:11;3.9;;;1.8;;
68375;SDS011;55318;52.068;5.188;2023-05-01T08:11:24;7.2;;;2.21;;
68375;SDS011;55318;52.068;5.188;2023-05-01T08:13:01;3.8;;;2.0;;
68375;SDS011;55318;52.068;5.188;2023-05-01T08:14:37;3.3;;;1.7;;
68375;SDS011;55318;52.068;5.188;2023-05-01T08:17:49;3.5;;;2.31;;
68375;SDS011;55318;52.068;5.188;2023-05-01T08:19:25;4.8;;;2.8;;
68375;SDS011;55318;52.068;5.188;2023-05-01T08:21:01;5.2;;;2.5;;
68375;SDS011;55318;52.068;5.188;2023-05-01T08:24:14;4.7;;;2.21;;
68375;SDS011;55318;52.068;5.188;2023-05-01T08:25:50;2.8;;;1.9;;
68375;SDS011;55318;52.068;5.188;2023-05-01T08:27:27;6.8;;;2.1;;
68375;SDS011;55318;52.068;5.188;2023-05-01T08:30:39;6.6;;;2.6;;
68375;SDS011;55318;52.068;5.188;2023-05-01T08:32:15;4.2;;;3.0;;
68375;SDS011;55318;52.068;5.188;2023-05-01T08:33:53;4.8;;;2.21;;
68375;SDS011;55318;52.068;5.188;2023-05-01T08:35:29;5.11;;;2.1;;
68375;SDS011;55318;52.068;5.188;2023-05-01T08:38:42;4.7;;;2.4;;
68375;SDS011;55318;52.068;5.188;2023-05-01T08:40:18;4.2;;;2.0;;
68375;SDS011;55318;52.068;5.188;2023-05-01T08:41:54;6.7;;;2.6;;
68375;SDS011;55318;52.068;5.188;2023-05-01T08:45:07;6.2;;;2.7;;
68375;SDS011;55318;52.068;5.188;2023-05-01T08:46:45;3.6;;;2.0;;
68375;SDS011;55318;52.068;5.188;2023-05-01T08:48:23;4.61;;;2.7;;
68375;SDS011;55318;52.068;5.188;2023-05-01T08:50:00;5.11;;;2.4;;
68375;SDS011;55318;52.068;5.188;2023-05-01T08:53:17;4.2;;;2.31;;
68375;SDS011;55318;52.068;5.188;2023-05-01T08:54:57;5.5;;;2.21;;
68375;SDS011;55318;52.068;5.188;2023-05-01T08:56:35;3.3;;;2.0;;
68375;SDS011;55318;52.068;5.188;2023-05-01T08:59:52;4.0;;;2.4;;
68375;SDS011;55318;52.068;5.188;2023-05-01T09:01:32;6.6;;;2.5;;
68375;SDS011;55318;52.068;5.188;2023-05-01T09:03:10;5.4;;;2.7;;
68375;SDS011;55318;52.068;5.188;2023-05-01T09:04:47;3.9;;;2.0;;
68375;SDS011;55318;52.068;5.188;2023-05-01T09:08:04;3.6;;;1.9;;
68375;SDS011;55318;52.068;5.188;2023-05-01T09:09:40;4.5;;;2.6;;
68375;SDS011;55318;52.068;5.188;2023-05-01T09:11:18;5.9;;;2.21;;
68375;SDS011;55318;52.068;5.188;2023-05-01T09:14:36;4.91;;;2.21;;
68375;SDS011;55318;52.068;5.188;2023-05-01T09:16:13;4.7;;;2.21;;
68375;SDS011;55318;52.068;5.188;2023-05-01T09:17:50;8.81;;;2.8;;
68375;SDS011;55318;52.068;5.188;2023-05-01T09:19:26;3.9;;;2.31;;
68375;SDS011;55318;52.068;5.188;2023-05-01T09:22:39;3.7;;;1.9;;
68375;SDS011;55318;52.068;5.188;2023-05-01T09:24:15;2.8;;;2.21;;
68375;SDS011;55318;52.068;5.188;2023-05-01T09:25:52;6.3;;;2.0;;
68375;SDS011;55318;52.068;5.188;2023-05-01T09:29:09;3.6;;;1.9;;
68375;SDS011;55318;52.068;5.188;2023-05-01T09:30:45;6.6;;;2.21;;
68375;SDS011;55318;52.068;5.188;2023-05-01T09:32:22;3.2;;;2.4;;
68375;SDS011;55318;52.068;5.188;2023-05-01T09:34:00;3.2;;;2.4;;
68375;SDS011;55318;52.068;5.188;2023-05-01T09:37:32;2.5;;;1.8;;
68375;SDS011;55318;52.068;5.188;2023-05-01T09:39:09;4.61;;;2.31;;
68375;SDS011;55318;52.068;5.188;2023-05-01T09:41:03;3.2;;;2.21;;
68375;SDS011;55318;52.068;5.188;2023-05-01T09:42:41;3.2;;;2.21;;
68375;SDS011;55318;52.068;5.188;2023-05-01T09:44:24;4.3;;;2.0;;
68375;SDS011;55318;52.068;5.188;2023-05-01T09:47:39;5.5;;;2.4;;
68375;SDS011;55318;52.068;5.188;2023-05-01T09:49:16;3.6;;;2.5;;
68375;SDS011;55318;52.068;5.188;2023-05-01T09:50:52;4.2;;;2.4;;
68375;SDS011;55318;52.068;5.188;2023-05-01T09:54:05;2.7;;;2.1;;
68375;SDS011;55318;52.068;5.188;2023-05-01T09:55:58;4.3;;;2.5;;
68375;SDS011;55318;52.068;5.188;2023-05-01T09:57:35;4.0;;;2.1;;
68375;SDS011;55318;52.068;5.188;2023-05-01T09:59:15;2.9;;;2.1;;
68375;SDS011;55318;52.068;5.188;2023-05-01T10:02:28;3.0;;;1.9;;
68375;SDS011;55318;52.068;5.188;2023-05-01T10:04:05;3.4;;;1.8;;
68375;SDS011;55318;52.068;5.188;2023-05-01T10:05:42;4.5;;;2.1;;
68375;SDS011;55318;52.068;5.188;2023-05-01T10:08:55;5.11;;;1.9;;
68375;SDS011;55318;52.068;5.188;2023-05-01T10:10:31;2.21;;;1.6;;
68375;SDS011;55318;52.068;5.188;2023-05-01T10:12:07;6.6;;;2.8;;
68375;SDS011;55318;52.068;5.188;2023-05-01T10:13:43;5.2;;;1.8;;
68375;SDS011;55318;52.068;5.188;2023-05-01T10:16:56;3.5;;;1.9;;
68375;SDS011;55318;52.068;5.188;2023-05-01T10:18:32;2.6;;;1.8;;
68375;SDS011;55318;52.068;5.188;2023-05-01T10:20:10;3.3;;;1.8;;
68375;SDS011;55318;52.068;5.188;2023-05-01T10:23:24;4.5;;;2.21;;
68375;SDS011;55318;52.068;5.188;2023-05-01T10:25:00;3.0;;;1.6;;
68375;SDS011;55318;52.068;5.188;2023-05-01T10:26:41;5.6;;;2.0;;
68375;SDS011;55318;52.068;5.188;2023-05-01T10:29:55;2.6;;;1.8;;
68375;SDS011;55318;52.068;5.188;2023-05-01T10:31:32;2.5;;;1.7;;
68375;SDS011;55318;52.068;5.188;2023-05-01T10:33:11;2.5;;;1.7;;
68375;SDS011;55318;52.068;5.188;2023-05-01T10:34:48;2.0;;;1.7;;
68375;SDS011;55318;52.068;5.188;2023-05-01T10:38:18;3.6;;;1.4;;
68375;SDS011;55318;52.068;5.188;2023-05-01T10:39:57;2.4;;;1.6;;
68375;SDS011;55318;52.068;5.188;2023-05-01T10:42:06;3.5;;;2.5;;
68375;SDS011;55318;52.068;5.188;2023-05-01T10:43:44;5.4;;;1.9;;
68375;SDS011;55318;52.068;5.188;2023-05-01T10:45:28;3.6;;;1.7;;
68375;SDS011;55318;52.068;5.188;2023-05-01T10:50:02;1.9;;;1.5;;
68375;SDS011;55318;52.068;5.188;2023-05-01T10:51:56;3.7;;;1.6;;
68375;SDS011;55318;52.068;5.188;2023-05-01T10:53:34;4.61;;;1.9;;
68375;SDS011;55318;52.068;5.188;2023-05-01T10:57:40;4.5;;;1.7;;
68375;SDS011;55318;52.068;5.188;2023-05-01T10:59:17;2.9;;;1.3;;
68375;SDS011;55318;52.068;5.188;2023-05-01T11:01:16;2.31;;;2.0;;
68375;SDS011;55318;52.068;5.188;2023-05-01T11:03:35;3.1;;;1.2;;
68375;SDS011;55318;52.068;5.188;2023-05-01T11:05:12;3.9;;;1.6;;
68375;SDS011;55318;52.068;5.188;2023-05-01T11:07:12;5.3;;;1.6;;
68375;SDS011;55318;52.068;5.188;2023-05-01T11:08:49;5.2;;;2.1;;
68375;SDS011;55318;52.068;5.188;2023-05-01T11:10:25;5.6;;;1.8;;
68375;SDS011;55318;52.068;5.188;2023-05-01T11:13:54;2.5;;;1.8;;
68375;SDS011;55318;52.068;5.188;2023-05-01T11:15:32;3.6;;;1.7;;
68375;SDS011;55318;52.068;5.188;2023-05-01T11:17:09;3.7;;;1.8;;
68375;SDS011;55318;52.068;5.188;2023-05-01T11:18:45;7.7;;;2.7;;
68375;SDS011;55318;52.068;5.188;2023-05-01T11:22:29;6.0;;;2.5;;
68375;SDS011;55318;52.068;5.188;2023-05-01T11:24:07;2.7;;;2.21;;
68375;SDS011;55318;52.068;5.188;2023-05-01T11:25:45;3.4;;;1.9;;
68375;SDS011;55318;52.068;5.188;2023-05-01T11:27:22;4.3;;;2.4;;
68375;SDS011;55318;52.068;5.188;2023-05-01T11:30:36;3.1;;;2.0;;
68375;SDS011;55318;52.068;5.188;2023-05-01T11:32:15;2.9;;;2.1;;
68375;SDS011;55318;52.068;5.188;2023-05-01T11:33:54;5.0;;;2.31;;
68375;SDS011;55318;52.068;5.188;2023-05-01T11:35:32;5.8;;;2.8;;
68375;SDS011;55318;52.068;5.188;2023-05-01T11:40:29;5.0;;;2.9;;
68375;SDS011;55318;52.068;5.188;2023-05-01T11:42:06;6.2;;;2.8;;
68375;SDS011;55318;52.068;5.188;2023-05-01T11:43:47;4.3;;;2.6;;
68375;SDS011;55318;52.068;5.188;2023-05-01T11:47:00;7.1;;;2.31;;
68375;SDS011;55318;52.068;5.188;2023-05-01T11:48:36;4.91;;;2.6;;
68375;SDS011;55318;52.068;5.188;2023-05-01T11:50:13;4.5;;;2.9;;
68375;SDS011;55318;52.068;5.188;2023-05-01T11:53:31;5.9;;;2.21;;
68375;SDS011;55318;52.068;5.188;2023-05-01T11:55:07;6.7;;;3.0;;
68375;SDS011;55318;52.068;5.188;2023-05-01T11:56:44;5.11;;;2.5;;
68375;SDS011;55318;52.068;5.188;2023-05-01T11:58:36;4.7;;;2.1;;
68375;SDS011;55318;52.068;5.188;2023-05-01T12:01:51;5.9;;;2.6;;
68375;SDS011;55318;52.068;5.188;2023-05-01T12:03:27;5.2;;;2.6;;
68375;SDS011;55318;52.068;5.188;2023-05-01T12:05:13;3.2;;;2.1;;
68375;SDS011;55318;52.068;5.188;2023-05-01T12:06:54;5.0;;;2.1;;
68375;SDS011;55318;52.068;5.188;2023-05-01T12:10:07;2.8;;;2.21;;
68375;SDS011;55318;52.068;5.188;2023-05-01T12:11:45;6.4;;;2.5;;
68375;SDS011;55318;52.068;5.188;2023-05-01T12:13:23;4.5;;;2.21;;
68375;SDS011;55318;52.068;5.188;2023-05-01T12:15:00;5.3;;;2.4;;
68375;SDS011;55318;52.068;5.188;2023-05-01T12:18:13;5.9;;;2.31;;
68375;SDS011;55318;52.068;5.188;2023-05-01T12:19:51;3.8;;;2.5;;
68375;SDS011;55318;52.068;5.188;2023-05-01T12:21:27;6.7;;;2.4;;
68375;SDS011;55318;52.068;5.188;2023-05-01T12:24:49;4.1;;;2.31;;
68375;SDS011;55318;52.068;5.188;2023-05-01T12:26:26;4.0;;;2.31;;
68375;SDS011;55318;52.068;5.188;2023-05-01T12:28:02;9.71;;;2.6;;
68375;SDS011;55318;52.068;5.188;2023-05-01T12:29:43;6.6;;;2.8;;
68375;SDS011;55318;52.068;5.188;2023-05-01T12:32:57;5.9;;;2.7;;
68375;SDS011;55318;52.068;5.188;2023-05-01T12:34:34;6.4;;;2.7;;
68375;SDS011;55318;52.068;5.188;2023-05-01T12:36:10;4.91;;;2.4;;
68375;SDS011;55318;52.068;5.188;2023-05-01T12:39:23;4.3;;;2.31;;
68375;SDS011;55318;52.068;5.188;2023-05-01T12:41:00;5.0;;;2.7;;
68375;SDS011;55318;52.068;5.188;2023-05-01T12:42:36;6.6;;;2.9;;
68375;SDS011;55318;52.068;5.188;2023-05-01T12:45:57;4.91;;;3.0;;
68375;SDS011;55318;52.068;5.188;2023-05-01T12:47:35;4.1;;;2.31;;
68375;SDS011;55318;52.068;5.188;2023-05-01T12:49:15;5.6;;;2.7;;
68375;SDS011;55318;52.068;5.188;2023-05-01T12:50:51;5.6;;;2.5;;
68375;SDS011;55318;52.068;5.188;2023-05-01T12:54:07;5.2;;;2.7;;
68375;SDS011;55318;52.068;5.188;2023-05-01T12:55:45;8.81;;;2.9;;
68375;SDS011;55318;52.068;5.188;2023-05-01T12:57:22;8.81;;;2.9;;
68375;SDS011;55318;52.068;5.188;2023-05-01T12:58:58;5.5;;;2.9;;
68375;SDS011;55318;52.068;5.188;2023-05-01T13:02:18;4.91;;;2.8;;
68375;SDS011;55318;52.068;5.188;2023-05-01T13:03:54;5.0;;;2.8;;
68375;SDS011;55318;52.068;5.188;2023-05-01T13:05:30;5.3;;;3.0;;